Time;durP1;ratioP1;P1;durP2;ratioP2;P2;SDS_P1;SDS_P2;PMS_P1;PMS_P2;Temp;Humidity;BMP_temperature;BMP_pressure;BME280_temperature;BME280_humidity;BME280_pressure;Samples;Min_cycle;Max_cycle;Signal;HPM_P1;HPM_P2
2023/08/05 00:02:18;;;;;;;1.55;0.80;;;;;;;;;;5000840;28;20053;-69
2023/08/05 00:05:59;;;;;;;4.40;0.90;;;;;;;;;;5004157;28;20052;-67
2023/08/05 00:09:39;;;;;;;2.97;0.77;;;;;;;;;;5006438;28;20111;-67
2023/08/05 00:13:19;;;;;;;4.70;1.02;;;;;;;;;;5001656;28;20041;-68
2023/08/05 00:16:59;;;;;;;1.77;0.80;;;;;;;;;;5007216;28;20135;-66
2023/08/05 00:20:40;;;;;;;4.32;0.90;;;;;;;;;;5002935;28;20046;-67
2023/08/05 00:24:20;;;;;;;4.90;0.90;;;;;;;;;;5000762;28;20419;-68
2023/08/05 00:28:03;;;;;;;3.05;0.90;;;;;;;;;;4999770;28;20050;-70
2023/08/05 00:31:43;;;;;;;2.70;0.70;;;;;;;;;;5003086;28;20531;-67
2023/08/05 00:35:23;;;;;;;1.92;0.70;;;;;;;;;;5002307;28;20236;-68
2023/08/05 00:39:04;;;;;;;0.85;0.65;;;;;;;;;;5003115;28;20053;-67
2023/08/05 00:42:47;;;;;;;2.50;0.88;;;;;;;;;;5002228;28;20080;-68
2023/08/05 00:46:27;;;;;;;1.45;0.77;;;;;;;;;;5004227;28;20655;-68
2023/08/05 00:50:08;;;;;;;3.22;0.80;;;;;;;;;;5002604;28;20056;-67
2023/08/05 00:53:48;;;;;;;2.20;0.75;;;;;;;;;;5003331;28;20252;-68
2023/08/05 00:57:28;;;;;;;1.52;0.90;;;;;;;;;;5000710;28;20085;-68
2023/08/05 01:01:09;;;;;;;4.00;1.13;;;;;;;;;;5003758;28;20212;-67
2023/08/05 01:04:49;;;;;;;1.92;0.93;;;;;;;;;;5004033;28;20072;-68
2023/08/05 01:08:30;;;;;;;3.25;1.00;;;;;;;;;;4997508;28;20068;-68
2023/08/05 01:12:11;;;;;;;4.20;1.20;;;;;;;;;;5005631;28;20388;-70
2023/08/05 01:15:51;;;;;;;1.73;0.73;;;;;;;;;;5003505;28;20057;-68
2023/08/05 01:19:31;;;;;;;2.17;0.73;;;;;;;;;;5001055;28;20049;-69
2023/08/05 01:23:12;;;;;;;2.03;0.80;;;;;;;;;;5000029;28;20732;-68
2023/08/05 01:26:52;;;;;;;1.25;0.70;;;;;;;;;;5002282;28;20077;-68
2023/08/05 01:30:32;;;;;;;1.13;0.70;;;;;;;;;;5002581;28;20072;-65
2023/08/05 01:34:13;;;;;;;1.85;0.90;;;;;;;;;;5000965;28;20057;-66
2023/08/05 01:37:53;;;;;;;2.17;0.63;;;;;;;;;;5002548;28;20126;-65
2023/08/05 01:41:36;;;;;;;2.35;0.88;;;;;;;;;;5006640;28;20060;-65
2023/08/05 01:45:16;;;;;;;3.58;0.80;;;;;;;;;;5005836;28;20049;-66
2023/08/05 01:48:56;;;;;;;6.20;0.90;;;;;;;;;;5003406;28;20103;-66
2023/08/05 01:52:37;;;;;;;1.02;0.77;;;;;;;;;;5004440;28;20068;-67
2023/08/05 01:56:17;;;;;;;2.45;0.90;;;;;;;;;;5005740;28;20502;-66
2023/08/05 01:59:57;;;;;;;1.48;0.85;;;;;;;;;;5008174;28;20135;-66
2023/08/05 02:03:38;;;;;;;4.72;0.90;;;;;;;;;;5003690;28;20038;-66
2023/08/05 02:07:18;;;;;;;1.60;0.82;;;;;;;;;;5002984;28;20056;-67
2023/08/05 02:10:58;;;;;;;2.95;0.82;;;;;;;;;;5010045;28;20052;-67
2023/08/05 02:14:40;;;;;;;3.70;1.00;;;;;;;;;;5006072;28;20639;-66
2023/08/05 02:18:20;;;;;;;1.85;0.80;;;;;;;;;;5003779;28;20535;-67
2023/08/05 02:22:01;;;;;;;1.05;0.75;;;;;;;;;;5002113;28;20514;-66
2023/08/05 02:25:41;;;;;;;3.17;0.73;;;;;;;;;;5006482;28;20637;-67
2023/08/05 02:29:21;;;;;;;3.92;0.93;;;;;;;;;;5008752;28;20099;-66
2023/08/05 02:33:02;;;;;;;1.50;0.82;;;;;;;;;;5026252;28;22484;-66
2023/08/05 02:36:42;;;;;;;5.03;0.93;;;;;;;;;;5004503;28;20115;-68
2023/08/05 02:40:22;;;;;;;2.33;0.88;;;;;;;;;;5004855;28;20052;-67
2023/08/05 02:44:04;;;;;;;4.65;1.00;;;;;;;;;;5002294;28;20065;-68
2023/08/05 02:47:44;;;;;;;3.30;1.00;;;;;;;;;;5003129;28;20064;-68
2023/08/05 02:51:25;;;;;;;3.10;0.82;;;;;;;;;;5004415;28;20045;-68
2023/08/05 02:55:05;;;;;;;1.45;0.90;;;;;;;;;;5006464;28;20049;-68
2023/08/05 02:58:45;;;;;;;1.75;0.90;;;;;;;;;;5004853;28;20128;-67
2023/08/05 03:02:26;;;;;;;3.65;1.23;;;;;;;;;;5004911;28;20054;-67
2023/08/05 03:06:06;;;;;;;1.63;0.80;;;;;;;;;;5006222;28;20383;-67
2023/08/05 03:09:46;;;;;;;3.75;1.42;;;;;;;;;;5006133;28;20041;-65
2023/08/05 03:13:26;;;;;;;3.25;0.93;;;;;;;;;;5006364;28;20518;-67
2023/08/05 03:17:07;;;;;;;5.30;1.08;;;;;;;;;;5003694;28;20088;-67
2023/08/05 03:20:47;;;;;;;2.05;0.85;;;;;;;;;;5007951;28;20056;-66
2023/08/05 03:24:28;;;;;;;10.15;1.17;;;;;;;;;;5004682;28;20048;-67
2023/08/05 03:28:08;;;;;;;3.75;1.10;;;;;;;;;;5004696;28;20361;-69
2023/08/05 03:31:48;;;;;;;3.70;1.15;;;;;;;;;;5004941;28;20053;-68
2023/08/05 03:35:29;;;;;;;4.18;1.10;;;;;;;;;;5004249;28;20060;-65
2023/08/05 03:39:09;;;;;;;3.75;1.35;;;;;;;;;;5004769;28;20049;-65
2023/08/05 03:42:49;;;;;;;6.15;1.20;;;;;;;;;;5004220;28;20537;-66
2023/08/05 03:46:30;;;;;;;5.25;1.33;;;;;;;;;;5003129;28;20061;-64
2023/08/05 03:50:10;;;;;;;4.18;1.60;;;;;;;;;;5005343;28;20466;-64
2023/08/05 03:53:50;;;;;;;5.10;1.75;;;;;;;;;;5002878;28;20383;-64
2023/08/05 03:57:31;;;;;;;4.35;1.08;;;;;;;;;;5002807;28;20073;-66
2023/08/05 04:01:14;;;;;;;2.10;1.10;;;;;;;;;;5004059;28;20045;-68
2023/08/05 04:04:51;;;;;;;5.28;1.27;;;;;;;;;;5004006;28;20495;-67
2023/08/05 04:08:32;;;;;;;2.95;1.20;;;;;;;;;;5001449;28;21997;-66
2023/08/05 04:12:13;;;;;;;1.70;0.90;;;;;;;;;;5008529;28;20057;-68
2023/08/05 04:15:53;;;;;;;4.57;1.10;;;;;;;;;;5005056;28;20538;-65
2023/08/05 04:19:33;;;;;;;3.65;1.15;;;;;;;;;;5003375;28;22373;-66
2023/08/05 04:23:16;;;;;;;2.75;1.10;;;;;;;;;;5002549;28;20053;-67
2023/08/05 04:26:53;;;;;;;6.40;1.20;;;;;;;;;;5004704;28;20065;-67
2023/08/05 04:30:35;;;;;;;2.60;1.00;;;;;;;;;;5005096;28;21441;-65
2023/08/05 04:34:16;;;;;;;7.97;1.27;;;;;;;;;;5003862;28;20069;-66
2023/08/05 04:37:56;;;;;;;4.18;1.50;;;;;;;;;;5002489;28;20057;-68
2023/08/05 04:41:36;;;;;;;4.45;1.10;;;;;;;;;;5004306;28;20053;-66
2023/08/05 04:44:40;;;;;;;3.15;0.88;;;;;;;;;;5023363;28;20049;-68
2023/08/05 04:47:10;;;;;;;3.30;1.92;;;;;;;;;;5004748;28;20463;-66
2023/08/05 04:49:38;;;;;;;2.67;0.93;;;;;;;;;;5004503;28;20084;-67
2023/08/05 04:52:08;;;;;;;5.78;1.00;;;;;;;;;;5001935;28;20118;-67
2023/08/05 04:54:42;;;;;;;5.60;1.10;;;;;;;;;;5005655;28;20081;-65
2023/08/05 04:57:08;;;;;;;1.42;0.90;;;;;;;;;;5004987;28;20053;-67
2023/08/05 04:59:34;;;;;;;5.40;1.02;;;;;;;;;;5001935;28;20049;-67
2023/08/05 05:02:00;;;;;;;3.63;1.17;;;;;;;;;;5003020;28;20056;-68
2023/08/05 05:04:25;;;;;;;4.30;1.08;;;;;;;;;;5003512;28;20049;-68
2023/08/05 05:06:52;;;;;;;6.55;1.08;;;;;;;;;;5001913;28;20396;-67
2023/08/05 05:09:17;;;;;;;2.90;1.10;;;;;;;;;;5002766;28;20064;-66
2023/08/05 05:11:44;;;;;;;1.88;0.93;;;;;;;;;;5009128;28;21071;-69
2023/08/05 05:14:09;;;;;;;7.07;1.10;;;;;;;;;;5004603;28;20049;-66
2023/08/05 05:16:36;;;;;;;5.18;1.30;;;;;;;;;;5003465;28;20463;-70
2023/08/05 05:19:01;;;;;;;6.10;1.50;;;;;;;;;;5003203;28;20140;-67
2023/08/05 05:21:28;;;;;;;5.20;1.58;;;;;;;;;;5005427;28;20064;-68
2023/08/05 05:23:54;;;;;;;3.80;1.40;;;;;;;;;;5003455;28;20546;-68
2023/08/05 05:26:20;;;;;;;6.90;1.45;;;;;;;;;;5003621;28;20057;-68
2023/08/05 05:28:46;;;;;;;3.70;1.55;;;;;;;;;;5000785;28;20061;-68
2023/08/05 05:31:12;;;;;;;6.55;1.33;;;;;;;;;;5004944;28;20461;-68
2023/08/05 05:33:38;;;;;;;5.32;1.42;;;;;;;;;;5001647;28;20049;-68
2023/08/05 05:36:05;;;;;;;3.45;1.48;;;;;;;;;;5005320;28;20049;-66
2023/08/05 05:38:31;;;;;;;3.58;1.38;;;;;;;;;;5003301;28;20053;-69
2023/08/05 05:40:57;;;;;;;4.63;1.27;;;;;;;;;;5003490;28;20075;-66
2023/08/05 05:43:23;;;;;;;6.50;1.40;;;;;;;;;;5001925;28;20522;-66
2023/08/05 05:45:53;;;;;;;4.78;1.30;;;;;;;;;;5002692;28;20064;-65
2023/08/05 05:48:20;;;;;;;5.40;1.50;;;;;;;;;;5001158;28;20057;-65
2023/08/05 05:51:26;;;;;;;3.13;1.30;;;;;;;;;;5005065;28;20041;-66
2023/08/05 05:55:08;;;;;;;3.80;1.50;;;;;;;;;;5009949;28;20057;-65
2023/08/05 05:58:47;;;;;;;7.03;1.90;;;;;;;;;;5001331;28;20046;-67
2023/08/05 06:02:30;;;;;;;5.18;1.52;;;;;;;;;;5001707;28;20092;-70
2023/08/05 06:06:09;;;;;;;5.35;1.90;;;;;;;;;;5003527;28;20049;-68
2023/08/05 06:09:51;;;;;;;5.55;1.70;;;;;;;;;;5004014;28;20091;-69
2023/08/05 06:13:31;;;;;;;2.50;1.58;;;;;;;;;;5001997;28;20430;-66
2023/08/05 06:17:13;;;;;;;3.05;1.42;;;;;;;;;;5002433;28;20050;-66
2023/08/05 06:20:53;;;;;;;3.75;1.30;;;;;;;;;;5004313;28;20054;-66
2023/08/05 06:24:34;;;;;;;5.95;1.50;;;;;;;;;;5005820;28;20181;-66
2023/08/05 06:28:14;;;;;;;3.42;1.30;;;;;;;;;;5004688;28;20115;-67
2023/08/05 06:31:54;;;;;;;7.22;1.60;;;;;;;;;;5006287;28;20177;-69
2023/08/05 06:35:35;;;;;;;9.25;1.98;;;;;;;;;;5008563;28;20054;-69
2023/08/05 06:39:15;;;;;;;4.25;1.33;;;;;;;;;;5005387;28;20554;-68
2023/08/05 06:42:56;;;;;;;6.82;1.50;;;;;;;;;;5005635;28;20270;-67
2023/08/05 06:46:37;;;;;;;3.50;1.50;;;;;;;;;;5007580;28;20069;-68
2023/08/05 06:50:19;;;;;;;10.18;1.50;;;;;;;;;;5005711;28;20637;-67
2023/08/05 06:53:59;;;;;;;7.47;1.73;;;;;;;;;;5004683;28;20112;-67
2023/08/05 06:57:40;;;;;;;4.28;1.52;;;;;;;;;;5003689;28;20060;-67
2023/08/05 07:01:20;;;;;;;9.38;1.50;;;;;;;;;;5006514;28;20099;-67
2023/08/05 07:05:00;;;;;;;4.00;1.35;;;;;;;;;;5005759;28;20099;-67
2023/08/05 07:08:42;;;;;;;10.95;1.90;;;;;;;;;;5005064;28;20112;-68
2023/08/05 07:12:22;;;;;;;3.47;1.55;;;;;;;;;;5007711;28;20060;-67
2023/08/05 07:16:03;;;;;;;16.00;1.52;;;;;;;;;;5006209;28;20041;-67
2023/08/05 07:19:43;;;;;;;7.53;1.70;;;;;;;;;;5005096;28;20053;-68
2023/08/05 07:23:24;;;;;;;6.85;1.45;;;;;;;;;;5006059;28;20128;-68
2023/08/05 07:27:04;;;;;;;12.05;1.58;;;;;;;;;;5004330;28;20053;-68
2023/08/05 07:30:44;;;;;;;5.80;1.80;;;;;;;;;;5007132;28;21269;-68
2023/08/05 07:34:30;;;;;;;10.23;2.08;;;;;;;;;;5004136;28;20051;-67
2023/08/05 07:38:09;;;;;;;7.35;1.60;;;;;;;;;;5004030;28;20064;-67
2023/08/05 07:41:45;;;;;;;6.50;1.85;;;;;;;;;;5003324;28;20045;-67
2023/08/05 07:45:26;;;;;;;5.60;1.45;;;;;;;;;;5006338;28;20428;-68
2023/08/05 07:49:11;;;;;;;7.63;1.63;;;;;;;;;;5001891;28;20419;-67
2023/08/05 07:52:49;;;;;;;8.68;1.60;;;;;;;;;;5000298;28;20445;-69
2023/08/05 07:56:09;;;;;;;5.43;1.50;;;;;;;;;;4999853;28;20049;-69
2023/08/05 07:59:51;;;;;;;3.78;1.20;;;;;;;;;;5000185;28;20057;-67
2023/08/05 08:03:30;;;;;;;5.05;1.30;;;;;;;;;;5003113;28;20049;-68
2023/08/05 08:07:10;;;;;;;3.85;1.48;;;;;;;;;;5001901;28;20099;-70
2023/08/05 08:10:50;;;;;;;8.45;1.63;;;;;;;;;;5008903;28;20088;-69
2023/08/05 08:14:31;;;;;;;4.32;1.48;;;;;;;;;;5005079;28;20065;-69
2023/08/05 08:18:11;;;;;;;5.93;1.58;;;;;;;;;;5004684;28;20391;-69
2023/08/05 08:21:51;;;;;;;6.15;1.60;;;;;;;;;;5004658;28;20057;-69
2023/08/05 08:25:32;;;;;;;1.85;1.08;;;;;;;;;;4998447;28;20091;-69
2023/08/05 08:29:12;;;;;;;7.15;1.15;;;;;;;;;;5004065;28;20063;-69
2023/08/05 08:32:53;;;;;;;6.10;1.30;;;;;;;;;;5004500;28;20065;-68
2023/08/05 08:36:33;;;;;;;4.53;1.33;;;;;;;;;;5003745;28;20175;-69
2023/08/05 08:40:13;;;;;;;3.13;1.55;;;;;;;;;;5006236;28;20057;-68
2023/08/05 08:43:56;;;;;;;5.43;1.38;;;;;;;;;;5004904;28;20423;-70
2023/08/05 08:47:37;;;;;;;3.67;1.48;;;;;;;;;;5001737;28;20037;-67
2023/08/05 08:51:17;;;;;;;4.25;1.35;;;;;;;;;;5003530;28;20455;-69
2023/08/05 08:54:57;;;;;;;4.15;1.65;;;;;;;;;;5001912;28;20247;-71
2023/08/05 08:58:37;;;;;;;7.03;1.80;;;;;;;;;;4999151;28;20049;-72
2023/08/05 09:02:18;;;;;;;4.53;1.40;;;;;;;;;;5002020;28;20049;-69
2023/08/05 09:06:01;;;;;;;5.30;1.55;;;;;;;;;;5002425;28;20160;-69
2023/08/05 09:09:41;;;;;;;4.55;1.23;;;;;;;;;;5006634;28;20076;-69
2023/08/05 09:13:21;;;;;;;2.08;1.20;;;;;;;;;;5004006;28;20526;-68
2023/08/05 09:17:17;;;;;;;3.80;1.05;;;;;;;;;;5004316;28;20069;-71
2023/08/05 09:20:57;;;;;;;4.93;1.63;;;;;;;;;;5005310;28;20056;-69
2023/08/05 09:24:40;;;;;;;3.88;1.27;;;;;;;;;;5003760;28;20132;-73
2023/08/05 09:28:24;;;;;;;7.82;1.30;;;;;;;;;;5000875;28;20176;-70
2023/08/05 09:32:04;;;;;;;2.35;1.00;;;;;;;;;;5003090;28;20054;-71
2023/08/05 09:35:47;;;;;;;5.22;1.30;;;;;;;;;;5004276;28;20111;-69
2023/08/05 09:39:30;;;;;;;4.93;1.30;;;;;;;;;;4999580;28;20707;-73
2023/08/05 09:43:08;;;;;;;5.97;1.25;;;;;;;;;;4998720;28;20695;-72
2023/08/05 09:46:48;;;;;;;3.17;1.30;;;;;;;;;;5005100;28;20057;-73
2023/08/05 09:50:28;;;;;;;6.57;1.60;;;;;;;;;;5004041;28;20076;-71
2023/08/05 09:54:08;;;;;;;7.05;1.55;;;;;;;;;;5002443;28;20058;-72
2023/08/05 09:57:49;;;;;;;2.45;1.05;;;;;;;;;;5006094;28;20270;-72
2023/08/05 10:01:29;;;;;;;2.88;1.50;;;;;;;;;;5007374;28;20049;-70
2023/08/05 10:05:10;;;;;;;3.80;1.23;;;;;;;;;;5006078;28;20053;-72
2023/08/05 10:08:51;;;;;;;6.03;1.50;;;;;;;;;;5006738;28;20526;-72
2023/08/05 10:12:30;;;;;;;4.45;1.20;;;;;;;;;;5009660;28;20081;-71
2023/08/05 10:16:11;;;;;;;4.43;1.25;;;;;;;;;;5008734;28;20580;-72
2023/08/05 10:19:51;;;;;;;2.95;1.10;;;;;;;;;;5009912;28;20132;-73
2023/08/05 10:23:21;;;;;;;5.13;1.30;;;;;;;;;;5005526;28;20712;-70
2023/08/05 10:27:04;;;;;;;1.73;1.17;;;;;;;;;;5004310;28;20111;-72
2023/08/05 10:30:45;;;;;;;2.83;1.20;;;;;;;;;;5008581;28;20054;-71
2023/08/05 10:34:28;;;;;;;4.00;1.17;;;;;;;;;;5006353;28;20438;-71
2023/08/05 10:38:09;;;;;;;2.65;1.40;;;;;;;;;;5007031;28;20061;-73
2023/08/05 10:41:49;;;;;;;2.20;1.30;;;;;;;;;;5006056;28;20061;-72
2023/08/05 10:45:29;;;;;;;4.80;1.27;;;;;;;;;;5006919;28;20129;-72
2023/08/05 10:49:10;;;;;;;4.45;1.50;;;;;;;;;;5005915;28;20392;-71
2023/08/05 10:52:56;;;;;;;3.45;1.20;;;;;;;;;;5005614;28;20091;-71
2023/08/05 10:56:36;;;;;;;3.72;1.50;;;;;;;;;;5007583;28;20052;-71
2023/08/05 11:00:17;;;;;;;5.30;1.67;;;;;;;;;;5007724;28;20050;-72
2023/08/05 11:04:09;;;;;;;2.47;1.33;;;;;;;;;;5005866;28;20066;-70
2023/08/05 11:07:50;;;;;;;4.80;1.50;;;;;;;;;;5004683;28;20415;-71
2023/08/05 11:11:30;;;;;;;5.40;1.48;;;;;;;;;;5014153;28;20053;-70
2023/08/05 11:15:10;;;;;;;4.43;1.70;;;;;;;;;;5014423;28;20072;-71
2023/08/05 11:18:51;;;;;;;3.22;1.40;;;;;;;;;;5007637;28;20469;-73
2023/08/05 11:22:33;;;;;;;7.03;1.42;;;;;;;;;;5005193;28;20457;-71
2023/08/05 11:26:13;;;;;;;5.22;1.40;;;;;;;;;;5008595;28;20060;-71
2023/08/05 11:29:53;;;;;;;5.18;1.88;;;;;;;;;;5006303;28;20401;-73
2023/08/05 11:33:33;;;;;;;8.50;1.75;;;;;;;;;;5003925;28;20068;-71
2023/08/05 11:37:14;;;;;;;6.53;1.70;;;;;;;;;;5005728;28;20045;-72
2023/08/05 11:40:54;;;;;;;7.10;1.48;;;;;;;;;;5005177;28;20461;-74
2023/08/05 11:44:37;;;;;;;11.30;1.55;;;;;;;;;;5005648;28;20057;-72
2023/08/05 11:48:17;;;;;;;9.48;1.58;;;;;;;;;;5004718;28;20037;-73
2023/08/05 11:51:44;;;;;;;4.55;1.50;;;;;;;;;;5006137;28;20081;-73
2023/08/05 11:55:24;;;;;;;8.55;1.38;;;;;;;;;;5008294;28;20049;-72
2023/08/05 11:59:04;;;;;;;4.65;1.67;;;;;;;;;;5004066;28;20463;-73
2023/08/05 12:02:44;;;;;;;6.95;2.00;;;;;;;;;;5004370;28;22251;-72
2023/08/05 12:06:25;;;;;;;6.40;1.48;;;;;;;;;;5008660;28;20817;-72
2023/08/05 12:10:06;;;;;;;6.88;1.30;;;;;;;;;;5003690;28;20042;-73
2023/08/05 12:13:45;;;;;;;5.35;1.40;;;;;;;;;;5003301;28;20060;-73
2023/08/05 12:17:26;;;;;;;4.22;1.20;;;;;;;;;;5004407;28;20842;-71
2023/08/05 12:21:06;;;;;;;8.48;1.60;;;;;;;;;;5005762;28;20056;-71
2023/08/05 12:24:47;;;;;;;9.05;1.58;;;;;;;;;;5005234;28;20056;-72
2023/08/05 12:28:28;;;;;;;9.32;1.38;;;;;;;;;;5001442;28;20053;-73
2023/08/05 12:32:08;;;;;;;10.05;1.40;;;;;;;;;;5003546;28;20053;-72
2023/08/05 12:35:50;;;;;;;5.10;1.48;;;;;;;;;;5010317;28;20058;-71
2023/08/05 12:39:30;;;;;;;6.53;1.20;;;;;;;;;;5003733;28;20055;-72
2023/08/05 12:43:12;;;;;;;4.70;1.10;;;;;;;;;;5003797;28;20100;-73
2023/08/05 12:46:51;;;;;;;5.70;1.40;;;;;;;;;;5003214;28;20045;-71
2023/08/05 12:50:31;;;;;;;6.72;1.20;;;;;;;;;;5005069;28;20045;-73
2023/08/05 12:54:12;;;;;;;3.65;1.40;;;;;;;;;;5004845;28;20045;-71
2023/08/05 12:57:52;;;;;;;4.13;1.60;;;;;;;;;;5004156;28;20131;-71
2023/08/05 13:01:32;;;;;;;8.68;1.60;;;;;;;;;;5005775;28;20080;-71
2023/08/05 13:05:13;;;;;;;8.95;1.77;;;;;;;;;;5005610;28;20111;-72
2023/08/05 13:08:53;;;;;;;5.30;1.33;;;;;;;;;;5004011;28;20077;-75
2023/08/05 13:12:33;;;;;;;6.32;1.33;;;;;;;;;;5007904;28;20056;-72
2023/08/05 13:16:14;;;;;;;5.88;1.27;;;;;;;;;;5003368;28;20087;-71
2023/08/05 13:19:54;;;;;;;7.35;1.55;;;;;;;;;;5004959;28;20480;-72
2023/08/05 13:23:35;;;;;;;6.60;1.67;;;;;;;;;;5001116;28;20045;-70
2023/08/05 13:27:17;;;;;;;7.10;1.88;;;;;;;;;;5002343;28;20434;-72
2023/08/05 13:30:56;;;;;;;5.60;1.80;;;;;;;;;;5005681;28;20046;-72
2023/08/05 13:34:37;;;;;;;3.55;1.20;;;;;;;;;;5006429;28;20109;-72
2023/08/05 13:38:17;;;;;;;4.38;1.23;;;;;;;;;;5006703;28;20057;-72
2023/08/05 13:41:59;;;;;;;5.80;1.30;;;;;;;;;;5005943;28;20061;-72
2023/08/05 13:44:58;;;;;;;5.75;1.38;;;;;;;;;;5007311;28;20049;-74
2023/08/05 13:47:24;;;;;;;4.38;1.40;;;;;;;;;;5007308;28;20046;-72
2023/08/05 13:49:50;;;;;;;5.78;1.50;;;;;;;;;;5008169;28;20045;-73
2023/08/05 13:52:16;;;;;;;4.55;1.42;;;;;;;;;;5006965;28;20755;-73
2023/08/05 13:54:42;;;;;;;5.25;1.40;;;;;;;;;;5008336;28;20080;-73
2023/08/05 13:57:08;;;;;;;7.35;1.52;;;;;;;;;;5006287;28;21085;-72
2023/08/05 13:59:33;;;;;;;2.95;1.20;;;;;;;;;;5007093;28;20060;-72
2023/08/05 14:02:01;;;;;;;5.72;1.40;;;;;;;;;;5007348;28;20057;-71
2023/08/05 14:04:28;;;;;;;8.60;1.63;;;;;;;;;;5006847;28;20176;-73
2023/08/05 14:06:54;;;;;;;5.78;1.33;;;;;;;;;;5008321;28;20689;-71
2023/08/05 14:09:20;;;;;;;5.47;1.30;;;;;;;;;;5008872;28;20053;-71
2023/08/05 14:11:48;;;;;;;4.78;1.35;;;;;;;;;;5013699;28;20072;-72
2023/08/05 14:14:13;;;;;;;9.23;1.73;;;;;;;;;;5008214;28;20526;-71
2023/08/05 14:16:39;;;;;;;9.27;1.80;;;;;;;;;;5005440;28;20363;-72
2023/08/05 14:19:08;;;;;;;7.65;1.60;;;;;;;;;;5007269;28;20064;-71
2023/08/05 14:21:36;;;;;;;5.35;1.33;;;;;;;;;;5007499;28;20064;-72
2023/08/05 14:24:01;;;;;;;5.45;1.25;;;;;;;;;;5020650;28;20057;-72
2023/08/05 14:26:27;;;;;;;5.93;1.30;;;;;;;;;;5006502;28;20386;-71
2023/08/05 14:28:53;;;;;;;3.88;1.13;;;;;;;;;;5004155;28;20942;-72
2023/08/05 14:31:19;;;;;;;5.30;1.45;;;;;;;;;;5006502;28;20064;-72
2023/08/05 14:33:45;;;;;;;7.20;1.48;;;;;;;;;;5006467;28;20049;-71
2023/08/05 14:36:14;;;;;;;5.72;1.45;;;;;;;;;;5006972;28;20135;-72
2023/08/05 14:38:40;;;;;;;4.25;1.40;;;;;;;;;;5006622;28;20069;-72
2023/08/05 14:41:13;;;;;;;6.00;1.30;;;;;;;;;;5007183;28;20057;-71
2023/08/05 14:43:39;;;;;;;5.32;1.10;;;;;;;;;;5005361;28;20140;-70
2023/08/05 14:46:06;;;;;;;6.10;1.48;;;;;;;;;;5006756;28;20033;-73
2023/08/05 14:48:32;;;;;;;4.57;1.27;;;;;;;;;;5007134;28;20073;-73
2023/08/05 14:51:04;;;;;;;9.13;1.70;;;;;;;;;;5007456;28;20045;-72
2023/08/05 14:53:30;;;;;;;5.85;1.25;;;;;;;;;;5006357;28;20045;-71
2023/08/05 14:56:00;;;;;;;4.28;1.33;;;;;;;;;;5007982;28;20469;-72
2023/08/05 14:58:26;;;;;;;4.95;1.23;;;;;;;;;;5008083;28;20155;-74
2023/08/05 15:00:52;;;;;;;4.80;1.27;;;;;;;;;;5005709;28;20042;-72
2023/08/05 15:03:18;;;;;;;5.55;1.33;;;;;;;;;;5006201;28;20050;-73
2023/08/05 15:05:44;;;;;;;6.50;1.50;;;;;;;;;;5008454;28;20049;-73
2023/08/05 15:08:11;;;;;;;5.43;1.40;;;;;;;;;;5003164;28;20572;-72
2023/08/05 15:10:37;;;;;;;6.95;1.40;;;;;;;;;;5013424;28;20057;-72
2023/08/05 15:13:04;;;;;;;6.40;1.30;;;;;;;;;;5005453;28;20051;-72
2023/08/05 15:15:30;;;;;;;9.85;1.60;;;;;;;;;;5005873;28;20067;-71
2023/08/05 15:17:56;;;;;;;4.03;1.38;;;;;;;;;;5004858;28;20053;-70
2023/08/05 15:20:22;;;;;;;6.45;1.50;;;;;;;;;;5008910;28;20227;-72
2023/08/05 15:22:48;;;;;;;6.07;1.40;;;;;;;;;;4999660;28;20057;-73
2023/08/05 15:25:14;;;;;;;9.55;1.42;;;;;;;;;;5007882;28;20045;-72
2023/08/05 15:27:40;;;;;;;5.40;1.48;;;;;;;;;;5006032;28;20057;-73
2023/08/05 15:30:10;;;;;;;6.85;1.60;;;;;;;;;;5006416;28;20068;-72
2023/08/05 15:32:36;;;;;;;6.45;1.40;;;;;;;;;;5005418;28;20049;-72
2023/08/05 15:35:02;;;;;;;7.10;1.60;;;;;;;;;;5005619;28;20062;-71
2023/08/05 15:37:28;;;;;;;5.28;1.52;;;;;;;;;;5004675;28;20053;-71
2023/08/05 15:39:57;;;;;;;6.97;1.50;;;;;;;;;;5008242;28;20510;-72
2023/08/05 15:42:23;;;;;;;4.95;1.70;;;;;;;;;;5004660;28;20056;-71
2023/08/05 15:44:49;;;;;;;8.23;1.65;;;;;;;;;;5006410;28;20132;-73
2023/08/05 15:47:15;;;;;;;6.60;1.52;;;;;;;;;;5005853;28;20151;-72
2023/08/05 15:49:41;;;;;;;8.98;1.70;;;;;;;;;;5003025;28;20057;-72
2023/08/05 15:52:08;;;;;;;8.32;1.73;;;;;;;;;;5004267;28;20050;-70
2023/08/05 15:54:34;;;;;;;7.90;1.50;;;;;;;;;;5006248;28;20054;-73
2023/08/05 15:57:03;;;;;;;7.72;1.73;;;;;;;;;;5006281;28;20060;-73
2023/08/05 15:59:32;;;;;;;9.82;1.80;;;;;;;;;;5006534;28;20075;-70
2023/08/05 16:01:58;;;;;;;7.57;2.00;;;;;;;;;;5003867;28;20288;-73
2023/08/05 16:04:24;;;;;;;8.45;1.92;;;;;;;;;;5003980;28;20057;-71
2023/08/05 16:06:50;;;;;;;7.35;1.70;;;;;;;;;;5004323;28;20053;-72
2023/08/05 16:09:17;;;;;;;9.95;1.88;;;;;;;;;;5005062;28;20045;-72
2023/08/05 16:11:43;;;;;;;8.82;1.60;;;;;;;;;;5009141;28;20053;-73
2023/08/05 16:14:09;;;;;;;6.32;1.60;;;;;;;;;;5006565;28;20049;-73
2023/08/05 16:16:36;;;;;;;7.25;1.90;;;;;;;;;;5004692;28;20053;-71
2023/08/05 16:19:02;;;;;;;8.00;1.90;;;;;;;;;;5006185;28;20664;-72
2023/08/05 16:21:28;;;;;;;9.77;1.95;;;;;;;;;;5006027;28;20037;-72
2023/08/05 16:23:56;;;;;;;4.93;1.70;;;;;;;;;;5005640;28;20045;-73
2023/08/05 16:26:24;;;;;;;8.63;1.80;;;;;;;;;;5003923;28;20115;-72
2023/08/05 16:28:51;;;;;;;9.40;1.85;;;;;;;;;;5003848;28;20507;-72
2023/08/05 16:31:18;;;;;;;9.55;1.83;;;;;;;;;;5004937;28;20062;-72
2023/08/05 16:33:44;;;;;;;11.70;1.70;;;;;;;;;;5004966;28;20053;-74
2023/08/05 16:36:11;;;;;;;5.63;1.70;;;;;;;;;;5006966;28;20515;-75
2023/08/05 16:38:37;;;;;;;6.68;1.55;;;;;;;;;;5004456;28;20048;-71
2023/08/05 16:41:04;;;;;;;7.35;1.80;;;;;;;;;;5006329;28;20042;-70
2023/08/05 16:43:30;;;;;;;8.88;1.58;;;;;;;;;;5003757;28;20561;-71
2023/08/05 16:45:56;;;;;;;5.97;1.55;;;;;;;;;;5002703;28;20053;-70
2023/08/05 16:48:22;;;;;;;7.80;1.60;;;;;;;;;;5004198;28;20057;-72
2023/08/05 16:50:48;;;;;;;6.50;2.08;;;;;;;;;;5004278;28;20396;-70
2023/08/05 16:53:15;;;;;;;7.68;1.73;;;;;;;;;;5003098;28;20068;-72
2023/08/05 16:55:41;;;;;;;10.10;2.33;;;;;;;;;;5004685;28;20049;-73
2023/08/05 16:58:07;;;;;;;8.88;1.75;;;;;;;;;;5003907;28;20060;-75
2023/08/05 17:00:34;;;;;;;7.00;1.90;;;;;;;;;;5005635;28;20051;-72
2023/08/05 17:03:00;;;;;;;5.63;1.80;;;;;;;;;;5003136;28;20415;-70
2023/08/05 17:05:26;;;;;;;8.00;1.95;;;;;;;;;;5004703;28;20049;-72
2023/08/05 17:07:52;;;;;;;6.28;1.60;;;;;;;;;;5005518;28;20045;-72
2023/08/05 17:10:19;;;;;;;8.85;2.00;;;;;;;;;;5010666;28;20053;-74
2023/08/05 17:12:45;;;;;;;7.28;1.80;;;;;;;;;;5005978;28;20045;-76
2023/08/05 17:15:12;;;;;;;7.53;2.10;;;;;;;;;;5007535;28;20783;-73
2023/08/05 17:17:38;;;;;;;8.55;1.85;;;;;;;;;;5005554;28;20072;-71
2023/08/05 17:20:05;;;;;;;7.40;1.60;;;;;;;;;;5004853;28;20053;-72
2023/08/05 17:22:31;;;;;;;5.55;1.80;;;;;;;;;;5005306;28;20787;-72
2023/08/05 17:24:57;;;;;;;8.70;1.90;;;;;;;;;;5006822;28;20453;-72
2023/08/05 17:27:23;;;;;;;12.90;1.70;;;;;;;;;;5005688;28;20092;-73
2023/08/05 17:29:50;;;;;;;9.77;1.90;;;;;;;;;;5006272;28;20073;-72
2023/08/05 17:32:18;;;;;;;9.05;1.63;;;;;;;;;;5004988;28;20053;-74
2023/08/05 17:34:45;;;;;;;18.10;2.20;;;;;;;;;;5007545;28;20053;-73
2023/08/05 17:37:13;;;;;;;9.52;1.80;;;;;;;;;;5006008;28;20115;-72
2023/08/05 17:39:39;;;;;;;6.75;2.10;;;;;;;;;;5002572;28;20057;-74
2023/08/05 17:42:06;;;;;;;5.80;1.98;;;;;;;;;;5003386;28;20073;-69
2023/08/05 17:44:33;;;;;;;4.70;1.45;;;;;;;;;;5004405;28;20466;-70
2023/08/05 17:47:00;;;;;;;7.82;1.50;;;;;;;;;;5002289;28;20061;-68
2023/08/05 17:49:26;;;;;;;6.63;1.75;;;;;;;;;;5002937;28;20132;-74
2023/08/05 17:51:52;;;;;;;3.67;1.40;;;;;;;;;;5002848;28;20046;-69
2023/08/05 17:54:18;;;;;;;11.13;2.13;;;;;;;;;;5002666;28;20166;-71
2023/08/05 17:56:47;;;;;;;4.18;1.50;;;;;;;;;;5002527;28;20037;-68
2023/08/05 17:59:16;;;;;;;6.60;1.50;;;;;;;;;;4999350;28;20065;-72
2023/08/05 18:01:44;;;;;;;6.28;1.38;;;;;;;;;;4999352;28;20053;-67
2023/08/05 18:04:10;;;;;;;10.82;1.70;;;;;;;;;;5000901;28;20057;-68
2023/08/05 18:06:36;;;;;;;6.32;2.10;;;;;;;;;;4998226;28;20628;-68
2023/08/05 18:09:03;;;;;;;6.65;1.98;;;;;;;;;;5001425;28;20457;-68
2023/08/05 18:11:29;;;;;;;8.75;2.13;;;;;;;;;;5000952;28;20557;-68
2023/08/05 18:13:55;;;;;;;4.93;2.03;;;;;;;;;;5002901;28;20439;-69
2023/08/05 18:16:22;;;;;;;7.75;2.08;;;;;;;;;;5006433;28;20057;-71
2023/08/05 18:18:48;;;;;;;9.65;1.90;;;;;;;;;;5008278;28;20458;-69
2023/08/05 18:21:14;;;;;;;8.80;1.98;;;;;;;;;;5008320;28;20060;-71
2023/08/05 18:23:41;;;;;;;11.07;2.03;;;;;;;;;;5010519;28;20057;-70
2023/08/05 18:26:09;;;;;;;6.07;2.00;;;;;;;;;;5012259;28;20064;-69
2023/08/05 18:28:36;;;;;;;9.27;2.20;;;;;;;;;;5012695;28;20121;-68
2023/08/05 18:31:02;;;;;;;10.50;1.77;;;;;;;;;;5006434;28;20656;-66
2023/08/05 18:33:28;;;;;;;9.60;1.85;;;;;;;;;;5005897;28;20045;-68
2023/08/05 18:35:54;;;;;;;5.35;1.73;;;;;;;;;;5003411;28;20049;-67
2023/08/05 18:38:20;;;;;;;9.90;2.13;;;;;;;;;;5003256;28;20046;-69
2023/08/05 18:40:46;;;;;;;12.52;2.45;;;;;;;;;;5002655;28;20061;-69
2023/08/05 18:43:12;;;;;;;11.82;1.80;;;;;;;;;;5002118;28;20049;-70
2023/08/05 18:45:38;;;;;;;5.10;1.50;;;;;;;;;;5006206;28;20850;-70
2023/08/05 18:48:04;;;;;;;11.40;1.92;;;;;;;;;;5002779;28;20049;-68
2023/08/05 18:50:30;;;;;;;6.65;1.70;;;;;;;;;;5004603;28;20054;-69
2023/08/05 18:52:57;;;;;;;6.80;1.80;;;;;;;;;;5001866;28;20080;-70